Time;durP1;ratioP1;P1;durP2;ratioP2;P2;SDS_P1;SDS_P2;PMS_P1;PMS_P2;Temp;Humidity;BMP_temperature;BMP_pressure;BME280_temperature;BME280_humidity;BME280_pressure;Samples;Min_cycle;Max_cycle;Signal;HPM_P1;HPM_P2
2022/05/11 00:00:22;;;;;;;8.27;7.38;;;;;;;23.48;48.80;99317.13;4162794;28;20278;-69
2022/05/11 00:02:24;;;;;;;8.98;6.65;;;;;;;23.01;49.21;99328.50;4159027;28;20241;-68
2022/05/11 00:04:26;;;;;;;8.10;7.18;;;;;;;23.61;47.97;99321.34;4162443;28;20412;-68
2022/05/11 00:06:28;;;;;;;7.47;6.68;;;;;;;23.74;47.70;99329.09;4160444;28;20244;-68
2022/05/11 00:08:31;;;;;;;7.35;6.65;;;;;;;23.98;47.14;99328.75;4163087;28;20237;-69
2022/05/11 00:10:33;;;;;;;8.20;6.78;;;;;;;23.70;47.64;99336.09;4161223;28;20299;-69
2022/05/11 00:12:35;;;;;;;9.43;7.47;;;;;;;24.39;46.51;99331.81;4168292;28;20232;-69
2022/05/11 00:14:37;;;;;;;8.32;7.07;;;;;;;24.80;46.17;99332.13;4163668;28;20232;-69
2022/05/11 00:16:39;;;;;;;10.05;7.40;;;;;;;24.53;46.64;99337.63;4167268;28;20243;-68
2022/05/11 00:18:41;;;;;;;10.30;7.40;;;;;;;24.78;45.98;99328.00;4160598;28;20280;-69
2022/05/11 00:20:43;;;;;;;8.27;6.57;;;;;;;24.60;46.50;99338.22;4168848;28;20277;-69
2022/05/11 00:22:45;;;;;;;7.78;6.97;;;;;;;24.34;46.52;99330.97;4170737;28;20244;-69
2022/05/11 00:24:46;;;;;;;7.95;7.18;;;;;;;24.21;46.79;99334.94;4162987;28;20240;-69
2022/05/11 00:26:48;;;;;;;8.43;7.35;;;;;;;23.90;47.15;99338.19;4167951;28;20503;-68
2022/05/11 00:28:50;;;;;;;9.40;7.50;;;;;;;23.84;47.56;99333.81;4163564;28;20275;-69
2022/05/11 00:30:51;;;;;;;7.82;7.03;;;;;;;24.39;46.53;99331.00;4161100;28;20236;-69
2022/05/11 00:32:59;;;;;;;8.48;7.53;;;;;;;24.29;46.86;99332.59;4163712;28;20293;-69
2022/05/11 00:35:01;;;;;;;8.38;6.70;;;;;;;23.36;48.35;99333.53;4167932;28;20279;-68
2022/05/11 00:37:02;;;;;;;9.35;6.43;;;;;;;23.57;47.94;99331.91;4163583;28;20289;-71
2022/05/11 00:39:04;;;;;;;8.35;7.00;;;;;;;24.01;47.15;99330.13;4165773;28;20727;-69
2022/05/11 00:41:06;;;;;;;7.87;7.07;;;;;;;23.54;47.77;99332.38;4169984;28;20641;-69
2022/05/11 00:43:08;;;;;;;8.45;6.80;;;;;;;23.39;48.12;99329.50;4165580;28;20254;-68
2022/05/11 00:45:11;;;;;;;7.60;6.40;;;;;;;23.49;47.83;99323.38;4168658;28;20236;-69
2022/05/11 00:47:26;;;;;;;8.55;7.22;;;;;;;23.86;47.28;99320.78;4163922;28;20705;-69
2022/05/11 00:49:38;;;;;;;8.73;6.70;;;;;;;24.07;46.90;99323.66;4167033;28;20719;-69
2022/05/11 00:51:46;;;;;;;7.80;6.80;;;;;;;23.86;47.35;99320.78;4162557;28;20228;-68
2022/05/11 00:53:53;;;;;;;8.10;6.80;;;;;;;23.70;47.47;99319.81;4166763;28;20236;-69
2022/05/11 00:55:58;;;;;;;7.63;6.83;;;;;;;23.16;48.15;99327.88;4157333;28;20421;-69
2022/05/11 00:58:09;;;;;;;10.57;7.05;;;;;;;23.76;47.03;99326.13;4161692;28;20221;-69
2022/05/11 01:00:11;;;;;;;10.55;6.35;;;;;;;24.03;46.81;99317.13;4161385;28;20295;-69
2022/05/11 01:02:13;;;;;;;7.63;6.93;;;;;;;24.03;46.55;99319.84;4164259;28;20243;-69
2022/05/11 01:04:18;;;;;;;7.30;6.50;;;;;;;24.09;46.61;99318.78;4165123;28;20232;-69
2022/05/11 01:06:22;;;;;;;7.70;6.63;;;;;;;23.90;47.15;99316.47;4163450;28;20323;-69
2022/05/11 01:08:24;;;;;;;8.55;6.72;;;;;;;23.83;46.90;99321.28;4164340;28;20317;-67
2022/05/11 01:10:28;;;;;;;9.65;6.63;;;;;;;23.63;47.53;99323.81;4160470;28;20244;-68
2022/05/11 01:12:39;;;;;;;10.63;7.30;;;;;;;23.49;47.83;99315.25;4166998;28;20587;-69
2022/05/11 01:14:45;;;;;;;7.40;6.63;;;;;;;22.30;49.80;99314.75;4155203;28;20225;-68
2022/05/11 01:16:47;;;;;;;8.63;6.32;;;;;;;23.43;48.15;99308.91;4164432;28;20316;-69
2022/05/11 01:18:49;;;;;;;7.68;6.47;;;;;;;22.90;48.87;99302.31;4163201;28;20287;-69
2022/05/11 01:20:52;;;;;;;9.63;6.20;;;;;;;23.39;47.79;99299.66;4161139;28;20656;-69
2022/05/11 01:23:14;;;;;;;8.77;6.35;;;;;;;23.65;47.28;99302.66;4164552;28;20499;-69
2022/05/11 01:25:16;;;;;;;7.53;6.55;;;;;;;23.23;48.29;99309.50;4165620;28;20286;-69
2022/05/11 01:27:21;;;;;;;7.97;6.43;;;;;;;23.26;48.17;99297.34;4165427;28;20224;-69
2022/05/11 01:29:23;;;;;;;11.90;6.57;;;;;;;23.28;47.99;99297.91;4161229;28;20264;-68
2022/05/11 01:31:24;;;;;;;8.70;6.03;;;;;;;22.50;49.25;99306.09;4160785;28;20274;-69
2022/05/11 01:33:26;;;;;;;7.88;7.10;;;;;;;21.94;50.58;99303.31;4162552;28;20264;-69
2022/05/11 01:35:51;;;;;;;7.45;6.55;;;;;;;23.28;48.17;99290.63;4171936;28;20254;-69
2022/05/11 01:38:21;;;;;;;10.37;7.00;;;;;;;23.84;47.19;99287.66;4159612;28;20227;-68
2022/05/11 01:40:22;;;;;;;7.63;6.50;;;;;;;23.17;48.12;99295.09;4165398;28;20778;-69
2022/05/11 01:42:24;;;;;;;8.13;7.10;;;;;;;23.20;48.02;99297.28;4158762;28;20263;-69
2022/05/11 01:44:26;;;;;;;9.43;7.40;;;;;;;23.22;48.31;99296.22;4157157;28;20659;-69
2022/05/11 01:46:27;;;;;;;8.48;6.72;;;;;;;23.65;47.54;99289.09;4158595;28;20240;-69
2022/05/11 01:48:30;;;;;;;7.75;6.88;;;;;;;23.72;47.19;99293.25;4165077;28;20262;-69
2022/05/11 01:50:32;;;;;;;9.13;6.68;;;;;;;23.59;47.40;99301.81;4160215;28;20236;-67
2022/05/11 01:52:34;;;;;;;7.60;6.80;;;;;;;23.69;47.09;99295.66;4158289;28;20236;-69
2022/05/11 01:54:36;;;;;;;8.52;7.40;;;;;;;23.80;46.85;99304.69;4163088;28;20240;-70
2022/05/11 01:56:38;;;;;;;8.15;7.35;;;;;;;23.79;47.02;99303.06;4159671;28;20228;-69
2022/05/11 01:58:39;;;;;;;9.65;7.47;;;;;;;23.60;46.84;99306.13;4166408;28;20614;-69
2022/05/11 02:00:44;;;;;;;7.97;6.70;;;;;;;23.87;46.58;99299.88;4157249;28;20298;-69
2022/05/11 02:02:46;;;;;;;8.00;6.85;;;;;;;23.51;47.29;99302.22;4160665;28;20717;-69
2022/05/11 02:09:28;;;;;;;9.77;7.20;;;;;;;23.34;47.76;99295.00;4164959;28;20721;-69
2022/05/11 02:11:30;;;;;;;8.50;6.85;;;;;;;23.05;48.37;99299.00;4165484;28;20305;-68
2022/05/11 02:13:32;;;;;;;10.23;7.00;;;;;;;23.05;48.08;99297.13;4162598;28;20247;-68
2022/05/11 02:15:36;;;;;;;9.73;6.93;;;;;;;22.93;48.42;99290.97;4164853;28;20289;-69
2022/05/11 02:17:37;;;;;;;8.40;6.80;;;;;;;22.80;48.70;99289.44;4168596;28;20262;-68
2022/05/11 02:19:39;;;;;;;8.15;7.35;;;;;;;22.91;48.83;99291.22;4162659;28;20232;-68
2022/05/11 02:21:40;;;;;;;8.17;6.93;;;;;;;22.79;48.71;99290.50;4159854;28;20236;-67
2022/05/11 02:23:42;;;;;;;8.23;7.20;;;;;;;23.20;48.27;99281.03;4164111;28;20233;-68
2022/05/11 02:25:45;;;;;;;9.60;7.20;;;;;;;23.08;48.29;99284.94;4166127;28;20233;-69
2022/05/11 02:27:49;;;;;;;8.90;7.63;;;;;;;22.70;49.06;99283.91;4165365;28;20232;-69
2022/05/11 02:29:50;;;;;;;8.60;7.20;;;;;;;22.88;48.98;99282.75;4160980;28;20537;-68
2022/05/11 02:31:52;;;;;;;8.53;7.63;;;;;;;22.00;50.52;99291.50;4159687;28;20278;-69
2022/05/11 02:33:54;;;;;;;8.23;7.30;;;;;;;22.75;49.14;99276.66;4154444;28;20232;-69
2022/05/11 02:35:56;;;;;;;7.90;7.10;;;;;;;23.00;48.38;99283.50;4160197;28;20286;-69
2022/05/11 02:38:00;;;;;;;9.60;7.27;;;;;;;22.98;48.58;99285.66;4162505;28;20712;-69
2022/05/11 02:40:02;;;;;;;9.23;7.90;;;;;;;22.54;49.33;99293.69;4169989;28;20232;-69
2022/05/11 02:42:04;;;;;;;9.57;6.87;;;;;;;23.12;48.26;99291.50;4159517;28;20228;-69
2022/05/11 02:44:06;;;;;;;8.50;7.30;;;;;;;22.83;48.79;99287.06;4165113;28;20228;-69
2022/05/11 02:46:09;;;;;;;8.10;7.30;;;;;;;22.83;48.78;99292.47;4157750;28;20232;-68
2022/05/11 02:48:14;;;;;;;9.47;7.60;;;;;;;23.15;48.29;99286.38;4163650;28;22492;-69
2022/05/11 02:50:22;;;;;;;9.20;6.73;;;;;;;23.12;47.96;99291.50;4162308;28;20612;-69
2022/05/11 02:52:24;;;;;;;8.70;7.10;;;;;;;23.13;47.86;99293.13;4165194;28;20539;-69
2022/05/11 02:54:26;;;;;;;9.93;7.23;;;;;;;23.27;47.87;99299.00;4164007;28;20236;-69
2022/05/11 02:56:27;;;;;;;7.77;6.70;;;;;;;23.44;47.68;99301.63;4161144;28;20245;-68
2022/05/11 02:58:32;;;;;;;8.50;7.50;;;;;;;23.15;48.08;99302.66;4168555;28;20285;-69
2022/05/11 03:00:36;;;;;;;8.23;7.43;;;;;;;22.99;48.27;99303.53;4159117;28;20256;-68
2022/05/11 03:02:39;;;;;;;11.00;8.00;;;;;;;22.94;48.51;99301.56;4167466;28;20259;-69
2022/05/11 03:04:40;;;;;;;9.37;6.30;;;;;;;22.99;48.30;99304.34;4159522;28;20243;-68
2022/05/11 03:06:42;;;;;;;9.53;7.47;;;;;;;23.15;48.03;99301.84;4162594;28;20778;-68
2022/05/11 03:08:44;;;;;;;10.93;7.30;;;;;;;23.09;48.23;99300.94;4163102;28;20294;-69
2022/05/11 03:10:47;;;;;;;8.37;7.37;;;;;;;23.07;47.97;99297.69;4159034;28;20244;-69
2022/05/11 03:12:49;;;;;;;9.00;8.07;;;;;;;22.86;48.45;99298.47;4159793;28;20613;-69
2022/05/11 03:14:53;;;;;;;9.80;7.77;;;;;;;23.17;47.97;99286.13;4162129;28;20258;-69
2022/05/11 03:16:55;;;;;;;8.60;7.50;;;;;;;22.83;48.61;99295.19;4163646;28;20290;-69
2022/05/11 03:18:59;;;;;;;11.23;7.77;;;;;;;23.34;47.67;99289.56;4159020;28;20310;-69
2022/05/11 03:21:00;;;;;;;8.10;7.30;;;;;;;22.68;48.50;99289.56;4164358;28;20247;-68
2022/05/11 03:23:02;;;;;;;8.63;7.73;;;;;;;23.02;48.30;99286.78;4159384;28;20228;-69
2022/05/11 03:25:05;;;;;;;11.00;7.70;;;;;;;23.09;48.23;99298.25;4158992;28;20677;-69
2022/05/11 03:27:08;;;;;;;10.67;8.07;;;;;;;23.29;47.55;99291.41;4159494;28;20236;-69
2022/05/11 03:29:11;;;;;;;8.70;7.03;;;;;;;22.78;48.77;99295.13;4162326;28;20801;-69
2022/05/11 03:31:12;;;;;;;8.70;7.30;;;;;;;23.12;47.89;99283.38;4158507;28;20228;-69
2022/05/11 03:35:35;;;;;;;10.57;8.00;;;;;;;23.12;48.09;99289.59;4161413;28;20229;-69
2022/05/11 03:37:38;;;;;;;8.17;7.37;;;;;;;23.06;48.01;99292.50;4157134;28;20243;-69
2022/05/11 03:39:39;;;;;;;11.33;7.70;;;;;;;23.29;47.57;99291.41;4170344;28;20229;-69
2022/05/11 03:41:48;;;;;;;8.63;7.73;;;;;;;23.08;48.22;99288.47;4159224;28;20236;-69
2022/05/11 03:43:49;;;;;;;8.97;7.60;;;;;;;23.08;48.39;99285.78;4163647;28;20232;-69
2022/05/11 03:45:51;;;;;;;10.73;7.70;;;;;;;23.12;48.08;99286.09;4164943;28;20301;-69
2022/05/11 03:47:53;;;;;;;8.50;7.57;;;;;;;23.45;47.26;99284.25;4165277;28;20232;-69
2022/05/11 03:49:54;;;;;;;9.43;8.40;;;;;;;23.34;47.53;99291.47;4161318;28;20782;-69
2022/05/11 03:51:56;;;;;;;8.23;7.33;;;;;;;23.23;47.53;99292.44;4162190;28;20480;-70
2022/05/11 03:53:58;;;;;;;8.47;7.20;;;;;;;23.02;47.81;99297.63;4158541;28;20232;-69
2022/05/11 03:56:00;;;;;;;10.43;7.50;;;;;;;22.86;48.38;99291.16;4161655;28;20720;-69
2022/05/11 03:58:02;;;;;;;8.93;8.03;;;;;;;23.22;47.69;99288.91;4163888;28;20225;-70
2022/05/11 04:00:08;;;;;;;10.27;9.07;;;;;;;23.10;48.15;99294.47;4161641;28;20237;-69
2022/05/11 04:02:09;;;;;;;8.30;7.50;;;;;;;23.17;48.20;99286.94;4162132;28;20228;-70
2022/05/11 04:04:12;;;;;;;8.83;7.20;;;;;;;22.67;48.83;99292.53;4160937;28;20359;-69
2022/05/11 04:06:14;;;;;;;10.80;8.07;;;;;;;22.59;48.92;99283.78;4162875;28;20240;-69
2022/05/11 04:08:16;;;;;;;8.53;7.73;;;;;;;22.95;48.45;99280.72;4163954;28;20639;-70
2022/05/11 04:10:18;;;;;;;8.40;7.07;;;;;;;22.99;48.47;99276.44;4161759;28;20648;-69
2022/05/11 04:12:19;;;;;;;10.07;8.00;;;;;;;22.54;48.99;99288.28;4167651;28;20665;-69
2022/05/11 04:14:21;;;;;;;8.80;7.70;;;;;;;22.79;48.69;99288.66;4163610;28;20233;-70
2022/05/11 04:16:24;;;;;;;9.27;8.00;;;;;;;22.23;49.80;99285.09;4165071;28;20286;-70
2022/05/11 04:18:26;;;;;;;8.70;7.80;;;;;;;22.57;49.18;99285.06;4163095;28;20236;-69
2022/05/11 04:20:28;;;;;;;8.67;7.73;;;;;;;22.71;49.25;99282.81;4169186;28;20236;-69
2022/05/11 04:22:30;;;;;;;9.10;8.20;;;;;;;22.40;49.32;99285.91;4161665;28;20661;-69
2022/05/11 04:24:32;;;;;;;9.83;8.20;;;;;;;22.31;49.99;99273.88;4160008;28;20653;-68
2022/05/11 04:26:35;;;;;;;8.83;7.93;;;;;;;22.19;49.99;99271.25;4163402;28;20233;-68
2022/05/11 04:28:39;;;;;;;11.03;8.43;;;;;;;22.63;49.27;99273.25;4160327;28;20374;-68
2022/05/11 04:30:41;;;;;;;8.53;7.63;;;;;;;22.49;49.56;99275.50;4164531;28;20232;-69
2022/05/11 04:32:43;;;;;;;9.23;8.17;;;;;;;22.63;48.92;99270.53;4161150;28;20232;-68
2022/05/11 04:34:44;;;;;;;8.50;7.63;;;;;;;22.52;49.05;99276.88;4162219;28;20689;-68
2022/05/11 04:36:46;;;;;;;8.93;8.03;;;;;;;22.46;49.46;99276.81;4163461;28;20291;-68
2022/05/11 04:38:48;;;;;;;12.33;8.97;;;;;;;21.98;50.55;99282.81;4168067;28;20271;-68
2022/05/11 04:40:50;;;;;;;11.43;8.60;;;;;;;22.16;50.09;99287.16;4153772;28;20232;-67
2022/05/11 04:42:52;;;;;;;9.77;8.33;;;;;;;21.95;50.77;99275.16;4144909;28;21856;-67
2022/05/11 04:44:54;;;;;;;10.27;8.40;;;;;;;22.09;50.43;99273.78;4158102;28;20319;-67
2022/05/11 04:46:55;;;;;;;11.30;8.73;;;;;;;22.32;49.92;99270.13;4162927;28;20378;-67
2022/05/11 04:49:16;;;;;;;10.00;7.90;;;;;;;21.98;50.47;99275.50;4167453;28;20485;-68
2022/05/11 04:51:18;;;;;;;8.77;7.87;;;;;;;21.62;51.51;99274.06;4161571;28;20232;-67
2022/05/11 04:53:20;;;;;;;10.10;8.87;;;;;;;21.75;51.24;99264.81;4167130;28;20407;-67
2022/05/11 04:55:22;;;;;;;8.83;7.93;;;;;;;22.44;50.10;99265.41;4160313;28;20286;-68
2022/05/11 04:57:23;;;;;;;9.30;8.20;;;;;;;22.44;50.24;99270.81;4167242;28;20236;-68
2022/05/11 04:59:25;;;;;;;8.73;7.83;;;;;;;22.44;50.05;99268.13;4162634;28;20294;-68
2022/05/11 05:01:27;;;;;;;15.27;9.10;;;;;;;22.38;50.34;99277.22;4166770;28;20223;-67
2022/05/11 05:03:28;;;;;;;12.43;8.17;;;;;;;21.97;51.02;99282.00;4165355;28;20248;-68
2022/05/11 05:05:31;;;;;;;9.20;7.73;;;;;;;22.07;50.74;99276.75;4167682;28;20764;-67
2022/05/11 05:07:36;;;;;;;9.67;7.97;;;;;;;22.67;49.89;99274.38;4158923;28;20722;-68
2022/05/11 05:09:37;;;;;;;12.50;8.03;;;;;;;22.65;49.98;99268.38;4161530;28;20263;-67
2022/05/11 05:11:39;;;;;;;10.57;8.30;;;;;;;22.39;50.35;99273.47;4161016;28;20258;-68
2022/05/11 05:13:41;;;;;;;8.63;7.63;;;;;;;22.60;49.98;99279.97;4158268;28;20236;-67
2022/05/11 05:15:42;;;;;;;10.03;8.23;;;;;;;23.13;49.01;99280.41;4160758;28;20717;-67
2022/05/11 05:17:44;;;;;;;9.40;7.93;;;;;;;22.82;49.74;99284.59;4166740;28;20294;-68
2022/05/11 05:19:47;;;;;;;9.60;8.03;;;;;;;22.73;49.56;99288.81;4167649;28;20232;-67
2022/05/11 05:21:49;;;;;;;9.00;8.07;;;;;;;22.33;50.49;99290.69;4164203;28;20267;-68
2022/05/11 05:23:51;;;;;;;8.07;7.27;;;;;;;22.94;49.66;99289.94;4159006;28;20326;-67
2022/05/11 05:25:52;;;;;;;8.97;8.07;;;;;;;22.58;50.15;99292.97;4160176;28;20254;-68
2022/05/11 05:31:04;;;;;;;10.13;7.47;;;;;;;22.20;51.15;99293.72;4160774;28;20236;-68
2022/05/11 05:32:38;;;;;;;9.23;7.07;;;;;;;22.29;51.12;99286.84;4159188;28;20232;-68
2022/05/11 05:34:40;;;;;;;9.40;7.43;;;;;;;21.63;52.32;99281.13;4166519;28;20247;-67
2022/05/11 05:36:41;;;;;;;11.00;7.60;;;;;;;22.51;50.46;99281.47;4159666;28;20763;-67
2022/05/11 05:38:43;;;;;;;8.73;7.33;;;;;;;22.92;49.82;99286.63;4154378;28;20285;-70
2022/05/11 05:40:46;;;;;;;8.10;7.30;;;;;;;22.84;49.66;99294.13;4160893;28;20232;-68
2022/05/11 05:42:48;;;;;;;9.90;7.57;;;;;;;23.08;49.66;99296.63;4165677;28;21185;-68
2022/05/11 05:44:50;;;;;;;8.77;7.53;;;;;;;23.20;49.71;99300.00;4160367;28;20241;-68
2022/05/11 05:46:52;;;;;;;7.63;6.83;;;;;;;22.51;50.71;99305.03;4159936;28;20244;-68
2022/05/11 05:48:54;;;;;;;9.60;7.57;;;;;;;22.03;51.68;99304.53;4162050;28;20244;-68
2022/05/11 05:51:04;;;;;;;7.70;6.93;;;;;;;22.06;51.46;99307.56;4162783;28;20233;-68
2022/05/11 05:53:06;;;;;;;7.70;6.50;;;;;;;22.57;50.27;99298.63;4168087;28;20232;-68
2022/05/11 05:55:08;;;;;;;7.43;6.40;;;;;;;22.36;51.02;99295.63;4163491;28;20262;-68
2022/05/11 05:57:12;;;;;;;8.23;6.70;;;;;;;22.36;51.35;99303.75;4168269;28;20247;-68
2022/05/11 05:59:14;;;;;;;7.57;6.60;;;;;;;22.69;50.37;99298.50;4160529;28;20229;-68
2022/05/11 06:01:16;;;;;;;7.87;7.07;;;;;;;22.12;51.55;99310.38;4160314;28;20294;-68
2022/05/11 06:03:24;;;;;;;7.53;6.50;;;;;;;22.35;51.73;99298.56;4159084;28;20264;-68
2022/05/11 06:05:28;;;;;;;8.10;6.37;;;;;;;22.64;50.60;99301.97;4167548;28;20296;-68
2022/05/11 06:07:30;;;;;;;8.13;6.70;;;;;;;22.84;50.25;99306.84;4161054;28;20235;-68
2022/05/11 06:09:32;;;;;;;11.13;7.77;;;;;;;22.99;50.40;99309.78;4160528;28;20747;-68
2022/05/11 06:11:33;;;;;;;8.30;6.30;;;;;;;22.84;50.28;99304.13;4165589;28;20269;-68
2022/05/11 06:13:36;;;;;;;7.20;6.30;;;;;;;23.05;49.19;99297.13;4157885;28;20701;-67
2022/05/11 06:15:40;;;;;;;7.73;6.13;;;;;;;22.59;50.48;99300.03;4166008;28;20259;-67
2022/05/11 06:17:42;;;;;;;7.70;5.97;;;;;;;22.31;51.00;99313.69;4155638;28;20239;-68
2022/05/11 06:19:44;;;;;;;7.35;5.97;;;;;;;22.57;50.49;99309.47;4159061;28;20260;-68
2022/05/11 06:21:48;;;;;;;6.30;5.70;;;;;;;22.74;50.34;99309.41;4159368;28;20225;-68
2022/05/11 06:23:51;;;;;;;7.50;6.10;;;;;;;22.28;50.90;99317.66;4153640;28;20240;-68
2022/05/11 06:25:53;;;;;;;8.15;6.00;;;;;;;22.86;50.04;99312.84;4160616;28;20231;-67
2022/05/11 06:27:54;;;;;;;6.82;5.85;;;;;;;22.72;50.65;99312.38;4155573;28;20233;-68
2022/05/11 06:29:59;;;;;;;11.02;6.13;;;;;;;22.26;50.77;99320.63;4159278;28;20236;-67
2022/05/11 06:32:00;;;;;;;5.75;5.18;;;;;;;22.10;50.77;99314.16;4160314;28;20262;-68
2022/05/11 06:34:02;;;;;;;8.88;5.47;;;;;;;22.88;49.49;99304.44;4165005;28;20435;-67
2022/05/11 06:36:07;;;;;;;7.07;5.33;;;;;;;22.36;50.46;99311.88;4161980;28;20294;-68
2022/05/11 06:38:09;;;;;;;7.28;5.05;;;;;;;22.87;49.23;99316.38;4162138;28;20279;-68
2022/05/11 06:40:14;;;;;;;6.13;4.70;;;;;;;22.73;49.45;99316.75;4150326;28;20224;-68
2022/05/11 06:42:16;;;;;;;7.10;5.20;;;;;;;23.25;48.54;99309.25;4150663;28;20229;-68
2022/05/11 06:44:18;;;;;;;5.93;4.65;;;;;;;23.52;48.54;99298.44;4165832;28;20731;-68
2022/05/11 06:46:20;;;;;;;6.43;5.28;;;;;;;23.12;48.67;99311.28;4159776;28;20236;-68
2022/05/11 06:48:21;;;;;;;6.47;5.07;;;;;;;23.84;47.95;99303.94;4156386;28;20751;-67
2022/05/11 06:50:25;;;;;;;8.15;4.97;;;;;;;22.86;49.07;99309.31;4158083;28;20282;-69
2022/05/11 06:52:27;;;;;;;6.05;5.00;;;;;;;23.10;49.37;99307.22;4159213;28;20232;-68
2022/05/11 06:59:21;;;;;;;6.32;4.90;;;;;;;23.30;48.66;99302.03;4161371;28;20232;-69
2022/05/11 07:01:23;;;;;;;5.78;4.93;;;;;;;23.49;49.00;99294.34;4165388;28;20294;-68
2022/05/11 07:03:25;;;;;;;5.32;4.40;;;;;;;23.00;48.96;99302.47;4154422;28;20239;-68
2022/05/11 07:05:29;;;;;;;5.43;4.80;;;;;;;23.36;49.15;99297.47;4154519;28;20271;-67
2022/05/11 07:07:31;;;;;;;5.18;4.55;;;;;;;23.29;49.06;99296.84;4157977;28;20232;-67
2022/05/11 07:09:34;;;;;;;10.82;4.25;;;;;;;22.65;49.45;99304.44;4157163;28;20228;-66
2022/05/11 07:13:57;;;;;;;8.55;4.68;;;;;;;23.98;48.23;99281.78;4159895;28;20281;-67
2022/05/11 07:15:59;;;;;;;4.88;4.32;;;;;;;24.19;47.70;99283.59;4167885;28;20236;-67
2022/05/11 07:18:04;;;;;;;7.50;4.93;;;;;;;23.35;48.29;99295.81;4161554;28;20232;-68
2022/05/11 07:20:12;;;;;;;4.97;3.97;;;;;;;23.64;48.24;99276.63;4161587;28;20224;-67
2022/05/11 07:22:14;;;;;;;5.55;4.38;;;;;;;24.22;47.62;99272.22;4160598;28;20693;-67
2022/05/11 07:24:15;;;;;;;4.95;4.45;;;;;;;23.83;48.32;99285.19;4151070;28;20282;-69
2022/05/11 07:26:17;;;;;;;8.27;4.38;;;;;;;24.31;47.26;99277.97;4157614;28;20283;-68
2022/05/11 07:28:19;;;;;;;5.05;4.53;;;;;;;24.46;46.96;99282.69;4161877;28;20431;-68
2022/05/11 07:30:24;;;;;;;6.38;4.40;;;;;;;24.78;47.50;99285.31;4165338;28;20240;-67
2022/05/11 07:32:33;;;;;;;6.07;4.60;;;;;;;24.72;47.33;99283.66;4156288;28;20236;-67
2022/05/11 07:34:35;;;;;;;5.18;4.57;;;;;;;25.04;46.51;99288.16;4161437;28;20290;-67
2022/05/11 07:36:36;;;;;;;5.78;4.45;;;;;;;25.10;46.65;99287.09;4162117;28;20362;-68
2022/05/11 07:38:40;;;;;;;6.55;4.18;;;;;;;24.42;47.22;99287.00;4193156;28;20608;-68
2022/05/11 07:40:42;;;;;;;6.20;4.75;;;;;;;25.09;46.44;99279.19;4162060;28;20778;-67
2022/05/11 07:42:45;;;;;;;7.25;4.45;;;;;;;25.05;46.23;99287.91;4162006;28;20298;-68
2022/05/11 07:44:46;;;;;;;8.77;4.45;;;;;;;24.82;46.88;99281.00;4159807;28;20232;-69
2022/05/11 07:46:48;;;;;;;6.45;5.03;;;;;;;24.49;46.48;99290.31;4156217;28;20619;-68
2022/05/11 07:48:50;;;;;;;10.05;4.60;;;;;;;25.07;46.06;99281.34;4162433;28;20243;-68
2022/05/11 07:50:52;;;;;;;10.77;4.95;;;;;;;24.90;46.77;99282.38;4162097;28;20266;-68
2022/05/11 07:52:54;;;;;;;5.68;4.68;;;;;;;25.22;45.37;99278.69;4168753;28;20265;-68
2022/05/11 07:54:56;;;;;;;5.40;4.70;;;;;;;25.40;45.38;99275.50;4161522;28;20232;-68
2022/05/11 08:01:38;;;;;;;5.25;4.35;;;;;;;24.92;46.50;99269.34;4172953;28;20232;-67
2022/05/11 08:03:40;;;;;;;7.15;4.75;;;;;;;24.65;46.24;99277.63;4159217;28;20258;-68
2022/05/11 08:05:42;;;;;;;11.15;5.10;;;;;;;25.12;45.92;99262.34;4163219;28;20243;-68
2022/05/11 08:07:49;;;;;;;10.85;4.85;;;;;;;24.56;46.87;99261.00;4165158;28;20229;-67
2022/05/11 08:09:58;;;;;;;8.95;4.85;;;;;;;25.11;46.36;99250.66;4161874;28;20232;-68
2022/05/11 08:12:00;;;;;;;7.25;4.60;;;;;;;25.36;46.23;99252.63;4164238;28;20235;-67
2022/05/11 08:14:02;;;;;;;7.93;4.72;;;;;;;25.01;46.23;99248.72;4164502;28;20228;-67
2022/05/11 08:16:04;;;;;;;7.57;4.53;;;;;;;25.47;46.36;99252.66;4163805;28;20233;-68
2022/05/11 08:18:06;;;;;;;7.03;4.55;;;;;;;25.45;45.43;99257.56;4163850;28;20642;-68
2022/05/11 08:20:14;;;;;;;7.15;4.63;;;;;;;25.47;45.66;99252.66;4161674;28;20746;-67
2022/05/11 08:22:16;;;;;;;7.28;4.85;;;;;;;25.50;45.79;99257.56;4160536;28;20259;-68
2022/05/11 08:24:18;;;;;;;12.50;4.80;;;;;;;24.92;47.12;99250.31;4172703;28;20242;-68
2022/05/11 08:26:20;;;;;;;6.35;4.50;;;;;;;25.34;46.34;99243.06;4165308;28;20717;-68
2022/05/11 08:28:23;;;;;;;8.70;5.22;;;;;;;25.72;46.06;99239.06;4162056;28;20298;-68
2022/05/11 08:35:32;;;;;;;5.60;4.90;;;;;;;25.95;45.06;99247.81;4159567;28;20279;-68
2022/05/11 08:37:33;;;;;;;6.95;4.88;;;;;;;26.08;45.44;99258.16;4166293;28;20439;-67
2022/05/11 08:39:35;;;;;;;7.00;4.25;;;;;;;25.78;45.51;99250.78;4162349;28;20224;-67
2022/05/11 08:41:50;;;;;;;6.78;4.55;;;;;;;26.14;44.09;99245.31;4160487;28;20233;-69
2022/05/11 08:44:00;;;;;;;6.03;4.53;;;;;;;26.04;44.87;99246.16;4157243;28;20329;-67
2022/05/11 08:46:21;;;;;;;5.22;4.30;;;;;;;26.41;44.95;99247.72;4158564;28;20232;-68
2022/05/11 08:48:36;;;;;;;8.10;4.30;;;;;;;25.96;45.25;99250.25;4165266;28;20240;-68
2022/05/11 08:50:43;;;;;;;5.13;4.50;;;;;;;26.58;45.17;99235.69;4160255;28;20232;-68
2022/05/11 08:53:06;;;;;;;8.80;4.88;;;;;;;26.53;43.83;99239.25;4161020;28;20286;-68
2022/05/11 08:55:14;;;;;;;6.97;4.55;;;;;;;26.69;43.90;99246.28;4162712;28;20315;-68
2022/05/11 08:57:20;;;;;;;7.30;4.72;;;;;;;26.42;44.77;99243.06;4168000;28;20236;-68
2022/05/11 08:59:26;;;;;;;7.63;4.63;;;;;;;26.90;43.86;99241.53;4161500;28;20286;-68
2022/05/11 09:01:35;;;;;;;8.38;4.30;;;;;;;27.24;44.24;99246.28;4160202;28;20283;-67
2022/05/11 09:03:44;;;;;;;8.93;4.43;;;;;;;26.81;44.50;99247.88;4160180;28;20224;-67
2022/05/11 09:05:45;;;;;;;6.63;4.63;;;;;;;26.82;44.68;99246.78;4159558;28;20232;-68
2022/05/11 09:07:49;;;;;;;6.90;4.38;;;;;;;26.35;45.56;99235.19;4162620;28;20233;-68
2022/05/11 09:09:56;;;;;;;7.38;4.05;;;;;;;27.18;44.00;99227.50;4166281;28;20709;-67
2022/05/11 09:11:58;;;;;;;4.65;4.25;;;;;;;26.46;45.13;99225.09;4166042;28;20275;-68
2022/05/11 09:14:01;;;;;;;6.10;4.25;;;;;;;26.12;44.96;99225.72;4162149;28;20233;-67
2022/05/11 09:16:05;;;;;;;4.57;3.65;;;;;;;25.79;45.20;99222.44;4162619;28;20302;-68
2022/05/11 09:18:07;;;;;;;5.28;4.30;;;;;;;26.64;45.28;99216.31;4164553;28;20235;-68
2022/05/11 09:20:18;;;;;;;6.78;4.53;;;;;;;27.05;44.23;99215.28;4162852;28;20244;-68
2022/05/11 09:22:24;;;;;;;8.52;4.32;;;;;;;27.26;43.52;99214.09;4163275;28;20240;-68
2022/05/11 09:24:29;;;;;;;7.20;4.15;;;;;;;26.41;44.02;99217.72;4166467;28;20236;-69
2022/05/11 09:26:38;;;;;;;6.43;4.03;;;;;;;26.61;43.50;99221.53;4160388;28;20237;-69
2022/05/11 09:28:42;;;;;;;8.13;4.53;;;;;;;26.43;44.05;99206.56;4160462;28;20733;-69
2022/05/11 09:30:59;;;;;;;5.43;4.22;;;;;;;26.14;44.06;99207.97;4157589;28;20236;-69
2022/05/11 09:33:25;;;;;;;10.77;5.38;;;;;;;27.30;42.59;99202.59;4156204;28;20240;-69
2022/05/11 09:35:36;;;;;;;6.75;4.20;;;;;;;27.78;43.00;99216.44;4160696;28;20290;-69
2022/05/11 09:37:54;;;;;;;6.72;4.68;;;;;;;27.28;43.25;99213.81;4167651;28;20255;-68
2022/05/11 09:40:20;;;;;;;6.55;3.88;;;;;;;28.05;42.27;99195.97;4161108;28;20644;-68
2022/05/11 09:42:29;;;;;;;5.75;4.22;;;;;;;28.12;41.64;99201.91;4154088;28;20225;-68
2022/05/11 09:44:44;;;;;;;5.90;4.35;;;;;;;27.85;41.74;99206.00;4166227;28;20232;-69
2022/05/11 09:46:46;;;;;;;6.05;4.35;;;;;;;27.95;42.25;99196.88;4167320;28;20248;-69
2022/05/11 09:49:17;;;;;;;6.18;4.50;;;;;;;28.09;42.00;99195.13;4168523;28;20241;-69
2022/05/11 09:51:23;;;;;;;6.38;4.10;;;;;;;27.48;42.23;99196.44;4136744;28;20679;-69
2022/05/11 09:53:27;;;;;;;4.72;3.90;;;;;;;27.52;41.83;99199.44;4159271;28;20279;-69
2022/05/11 09:55:36;;;;;;;8.15;4.15;;;;;;;27.90;41.98;99191.47;4165369;28;20705;-70
2022/05/11 09:57:39;;;;;;;8.38;4.25;;;;;;;27.75;41.48;99189.69;4163264;28;20287;-69
2022/05/11 09:59:43;;;;;;;7.20;3.70;;;;;;;27.94;41.76;99181.63;4160252;28;20225;-69
2022/05/11 10:01:48;;;;;;;7.10;3.95;;;;;;;27.73;41.24;99179.06;4164732;28;20232;-70
2022/05/11 10:03:55;;;;;;;7.43;3.80;;;;;;;28.15;41.41;99169.38;4159859;28;20243;-68
2022/05/11 10:06:20;;;;;;;8.35;4.00;;;;;;;27.80;41.46;99179.56;4161979;28;21075;-68
2022/05/11 10:08:28;;;;;;;5.47;3.80;;;;;;;28.03;41.11;99177.13;4159098;28;20232;-68